createdAt,value
2022-09-02T00:00:03.413Z,983.04
2022-09-02T00:01:03.422Z,983.10
2022-09-02T00:02:03.671Z,983.07
2022-09-02T00:03:03.609Z,983.04
2022-09-02T00:04:03.467Z,982.98
2022-09-02T00:05:03.507Z,982.95
2022-09-02T00:06:03.528Z,982.95
2022-09-02T00:07:03.562Z,982.81
2022-09-02T00:08:03.548Z,982.98
2022-09-02T00:09:03.587Z,982.93
2022-09-02T00:10:04.015Z,982.84
2022-09-02T00:11:05.038Z,982.93
2022-09-02T00:12:03.754Z,982.87
2022-09-02T00:13:03.818Z,982.90
2022-09-02T00:14:03.785Z,982.84
2022-09-02T00:15:03.892Z,982.87
2022-09-02T00:16:03.997Z,982.96
2022-09-02T00:17:03.968Z,982.98
2022-09-02T00:18:02.929Z,982.87
2022-09-02T00:19:02.939Z,982.74
2022-09-02T00:20:02.998Z,982.74
2022-09-02T00:21:03.128Z,982.87
2022-09-02T00:22:03.088Z,982.74
2022-09-02T00:23:03.094Z,982.78
2022-09-02T00:24:03.157Z,982.79
2022-09-02T00:25:03.181Z,982.74
2022-09-02T00:26:03.256Z,982.81
2022-09-02T00:27:03.333Z,982.65
2022-09-02T00:28:03.386Z,982.68
2022-09-02T00:29:03.411Z,982.68
2022-09-02T00:30:03.006Z,982.62
2022-09-02T00:31:03.161Z,982.62
2022-09-02T00:32:03.356Z,982.62
2022-09-02T00:33:03.289Z,982.59
2022-09-02T00:34:03.306Z,982.65
2022-09-02T00:35:03.270Z,982.74
2022-09-02T00:36:03.342Z,982.51
2022-09-02T00:37:03.332Z,982.42
2022-09-02T00:38:03.338Z,982.42
2022-09-02T00:39:03.262Z,982.56
2022-09-02T00:40:03.549Z,982.51
2022-09-02T00:41:03.663Z,982.36
2022-09-02T00:42:03.628Z,982.42
2022-09-02T00:43:03.729Z,982.48
2022-09-02T00:44:03.757Z,982.39
2022-09-02T00:45:03.757Z,982.48
2022-09-02T00:46:03.821Z,982.54
2022-09-02T00:47:03.797Z,982.57
2022-09-02T00:48:03.771Z,982.45
2022-09-02T00:49:03.839Z,982.48
2022-09-02T00:50:04.173Z,982.51
2022-09-02T00:51:02.952Z,982.51
2022-09-02T00:52:02.923Z,982.40
2022-09-02T00:53:02.975Z,982.43
2022-09-02T00:54:03.086Z,982.43
2022-09-02T00:55:03.065Z,982.43
2022-09-02T00:56:02.977Z,982.51
2022-09-02T00:57:02.998Z,982.37
2022-09-02T00:58:03.047Z,982.43
2022-09-02T00:59:03.075Z,982.40
2022-09-02T01:00:03.091Z,982.37
2022-09-02T01:01:03.216Z,982.43
2022-09-02T01:02:03.716Z,982.43
2022-09-02T01:03:03.457Z,982.46
2022-09-02T01:04:03.478Z,982.37
2022-09-02T01:05:04.364Z,982.35
2022-09-02T01:06:03.514Z,982.35
2022-09-02T01:07:03.622Z,982.32
2022-09-02T01:08:03.744Z,982.29
2022-09-02T01:09:03.774Z,982.35
2022-09-02T01:10:03.792Z,982.29
2022-09-02T01:11:06.809Z,982.32
2022-09-02T01:12:03.872Z,982.27
2022-09-02T01:13:02.951Z,982.41
2022-09-02T01:14:02.981Z,982.32
2022-09-02T01:15:02.971Z,982.27
2022-09-02T01:16:03.029Z,982.35
2022-09-02T01:17:03.103Z,982.27
2022-09-02T01:18:03.064Z,982.18
2022-09-02T01:19:03.073Z,982.21
2022-09-02T01:20:03.062Z,982.21
2022-09-02T01:21:03.073Z,982.16
2022-09-02T01:22:03.134Z,982.19
2022-09-02T01:23:03.126Z,982.19
2022-09-02T01:24:03.209Z,982.24
2022-09-02T01:25:03.120Z,982.19
2022-09-02T01:26:03.173Z,982.13
2022-09-02T01:27:03.139Z,982.22
2022-09-02T01:28:03.283Z,982.19
2022-09-02T01:29:03.225Z,982.10
2022-09-02T01:30:03.176Z,982.10
2022-09-02T01:31:03.429Z,981.96
2022-09-02T01:32:03.265Z,981.99
2022-09-02T01:33:03.292Z,982.01
2022-09-02T01:34:03.330Z,981.98
2022-09-02T01:35:03.425Z,982.01
2022-09-02T01:36:03.352Z,982.07
2022-09-02T01:37:03.434Z,982.04
2022-09-02T01:38:03.386Z,981.93
2022-09-02T01:39:04.196Z,982.10
2022-09-02T01:40:03.470Z,982.01
2022-09-02T01:41:03.799Z,982.10
2022-09-02T01:42:03.776Z,981.81
2022-09-02T01:43:03.877Z,982.04
2022-09-02T01:44:03.355Z,981.78
2022-09-02T01:45:03.421Z,981.81
2022-09-02T01:46:03.541Z,981.95
2022-09-02T01:47:03.038Z,981.78
2022-09-02T01:48:02.946Z,981.95
2022-09-02T01:49:02.926Z,981.89
2022-09-02T01:50:02.921Z,981.89
2022-09-02T01:51:02.926Z,981.78
2022-09-02T01:52:02.905Z,981.84
2022-09-02T01:53:02.924Z,981.78
2022-09-02T01:54:03.035Z,981.81
2022-09-02T01:55:03.051Z,981.84
2022-09-02T01:56:03.004Z,981.81
2022-09-02T01:57:03.092Z,981.86
2022-09-02T01:58:03.010Z,981.69
2022-09-02T01:59:03.085Z,981.83
2022-09-02T02:00:03.123Z,981.72
2022-09-02T02:01:03.313Z,981.69
2022-09-02T02:02:03.500Z,981.78
2022-09-02T02:03:03.300Z,981.69
2022-09-02T02:04:04.747Z,981.72
2022-09-02T02:05:03.368Z,981.66
2022-09-02T02:06:03.360Z,981.72
2022-09-02T02:07:03.480Z,981.72
2022-09-02T02:08:04.024Z,981.63
2022-09-02T02:09:03.503Z,981.72
2022-09-02T02:10:03.464Z,981.60
2022-09-02T02:11:03.617Z,981.57
2022-09-02T02:12:03.544Z,981.56
2022-09-02T02:13:03.569Z,981.60
2022-09-02T02:14:03.712Z,981.69
2022-09-02T02:15:03.729Z,981.69
2022-09-02T02:16:04.176Z,981.57
2022-09-02T02:17:03.863Z,981.63
2022-09-02T02:18:03.895Z,981.50
2022-09-02T02:19:03.908Z,981.50
2022-09-02T02:20:02.947Z,981.56
2022-09-02T02:21:04.066Z,981.50
2022-09-02T02:22:02.984Z,981.42
2022-09-02T02:23:03.552Z,981.53
2022-09-02T02:24:03.567Z,981.61
2022-09-02T02:25:03.644Z,981.53
2022-09-02T02:26:03.596Z,981.53
2022-09-02T02:27:03.649Z,981.44
2022-09-02T02:28:05.845Z,981.53
2022-09-02T02:29:03.621Z,981.58
2022-09-02T02:30:03.722Z,981.66
2022-09-02T02:31:03.766Z,981.45
2022-09-02T02:32:03.671Z,981.50
2022-09-02T02:33:03.834Z,981.61
2022-09-02T02:34:03.778Z,981.53
2022-09-02T02:35:03.001Z,981.53
2022-09-02T02:36:03.005Z,981.64
2022-09-02T02:37:03.085Z,981.56
2022-09-02T02:38:04.263Z,981.56
2022-09-02T02:39:03.185Z,981.54
2022-09-02T02:40:03.102Z,981.51
2022-09-02T02:41:03.216Z,981.58
2022-09-02T02:42:03.170Z,981.51
2022-09-02T02:43:03.133Z,981.51
2022-09-02T02:44:03.192Z,981.58
2022-09-02T02:45:03.227Z,981.56
2022-09-02T02:46:03.374Z,981.64
2022-09-02T02:47:03.421Z,981.48
2022-09-02T02:48:03.338Z,981.56
2022-09-02T02:49:03.322Z,981.51
2022-09-02T02:50:03.365Z,981.56
2022-09-02T02:51:03.361Z,981.51
2022-09-02T02:52:03.367Z,981.51
2022-09-02T02:53:03.258Z,981.54
2022-09-02T02:54:03.379Z,981.49
2022-09-02T02:55:03.487Z,981.52
2022-09-02T02:56:03.441Z,981.52
2022-09-02T02:57:03.747Z,981.52
2022-09-02T02:58:03.851Z,981.55
2022-09-02T02:59:03.803Z,981.49
2022-09-02T03:00:03.791Z,981.57
2022-09-02T03:01:02.922Z,981.43
2022-09-02T03:02:03.269Z,981.55
2022-09-02T03:03:04.056Z,981.46
2022-09-02T03:04:03.857Z,981.38
2022-09-02T03:05:02.890Z,981.44
2022-09-02T03:06:02.948Z,981.52
2022-09-02T03:07:02.906Z,981.44
2022-09-02T03:08:03.056Z,981.47
2022-09-02T03:09:02.970Z,981.52
2022-09-02T03:10:03.129Z,981.47
2022-09-02T03:11:03.092Z,981.41
2022-09-02T03:12:03.166Z,981.53
2022-09-02T03:13:03.176Z,981.50
2022-09-02T03:14:03.128Z,981.50
2022-09-02T03:15:03.146Z,981.44
2022-09-02T03:16:03.262Z,981.50
2022-09-02T03:17:03.255Z,981.44
2022-09-02T03:18:03.471Z,981.50
2022-09-02T03:19:03.585Z,981.56
2022-09-02T03:20:03.656Z,981.42
2022-09-02T03:21:03.659Z,981.53
2022-09-02T03:22:03.675Z,981.42
2022-09-02T03:23:03.785Z,981.39
2022-09-02T03:24:03.691Z,981.39
2022-09-02T03:25:03.773Z,981.42
2022-09-02T03:26:03.750Z,981.42
2022-09-02T03:27:03.792Z,981.45
2022-09-02T03:28:03.837Z,981.39
2022-09-02T03:29:02.973Z,981.45
2022-09-02T03:30:03.017Z,981.45
2022-09-02T03:31:03.237Z,981.58
2022-09-02T03:32:03.410Z,981.42
2022-09-02T03:33:04.700Z,981.42
2022-09-02T03:34:03.203Z,981.59
2022-09-02T03:35:03.157Z,981.51
2022-09-02T03:36:03.181Z,981.59
2022-09-02T03:37:03.246Z,981.48
2022-09-02T03:38:03.318Z,981.37
2022-09-02T03:39:03.335Z,981.56
2022-09-02T03:40:03.315Z,981.48
2022-09-02T03:41:03.430Z,981.43
2022-09-02T03:42:06.019Z,981.40
2022-09-02T03:43:03.553Z,981.46
2022-09-02T03:44:03.536Z,981.29
2022-09-02T03:45:03.579Z,981.26
2022-09-02T03:46:03.749Z,981.46
2022-09-02T03:47:03.642Z,981.40
2022-09-02T03:48:03.754Z,981.35
2022-09-02T03:49:03.816Z,981.18
2022-09-02T03:50:03.851Z,981.29
2022-09-02T03:51:02.936Z,981.32
2022-09-02T03:52:03.279Z,981.41
2022-09-02T03:53:03.360Z,981.38
2022-09-02T03:54:03.384Z,981.44
2022-09-02T03:55:03.373Z,981.44
2022-09-02T03:56:03.381Z,981.30
2022-09-02T03:57:04.503Z,981.44
2022-09-02T03:58:09.503Z,981.30
2022-09-02T03:59:04.138Z,981.27
2022-09-02T04:00:03.511Z,981.24
2022-09-02T04:01:03.484Z,981.18
2022-09-02T04:02:04.070Z,981.18
2022-09-02T04:03:03.793Z,981.24
2022-09-02T04:04:03.616Z,981.18
2022-09-02T04:05:03.833Z,981.24
2022-09-02T04:06:03.837Z,981.24
2022-09-02T04:07:03.868Z,981.41
2022-09-02T04:08:03.874Z,981.30
2022-09-02T04:09:02.912Z,981.24
2022-09-02T04:10:02.975Z,981.13
2022-09-02T04:11:03.019Z,981.27
2022-09-02T04:12:03.004Z,981.33
2022-09-02T04:13:02.988Z,981.22
2022-09-02T04:14:03.074Z,981.22
2022-09-02T04:15:03.163Z,981.19
2022-09-02T04:16:03.320Z,981.25
2022-09-02T04:17:03.445Z,981.19
2022-09-02T04:18:03.515Z,981.25
2022-09-02T04:19:03.612Z,981.16
2022-09-02T04:20:03.555Z,981.25
2022-09-02T04:21:03.635Z,981.25
2022-09-02T04:22:03.711Z,981.36
2022-09-02T04:23:03.704Z,981.28
2022-09-02T04:24:03.651Z,981.22
2022-09-02T04:25:04.045Z,981.25
2022-09-02T04:26:03.331Z,981.25
2022-09-02T04:27:04.832Z,981.20
2022-09-02T04:28:03.591Z,981.22
2022-09-02T04:29:06.634Z,981.28
2022-09-02T04:30:03.755Z,981.28
2022-09-02T04:31:03.891Z,981.31
2022-09-02T04:32:03.917Z,981.11
2022-09-02T04:33:03.889Z,981.20
2022-09-02T04:34:03.347Z,981.11
2022-09-02T04:35:03.290Z,981.08
2022-09-02T04:36:05.230Z,981.31
2022-09-02T04:37:03.407Z,981.25
2022-09-02T04:38:03.469Z,981.20
2022-09-02T04:39:03.347Z,981.20
2022-09-02T04:40:03.350Z,981.28
2022-09-02T04:41:03.260Z,981.17
2022-09-02T04:42:03.446Z,981.26
2022-09-02T04:43:03.371Z,981.34
2022-09-02T04:44:03.998Z,981.23
2022-09-02T04:45:03.498Z,981.14
2022-09-02T04:46:03.798Z,981.26
2022-09-02T04:47:03.730Z,981.17
2022-09-02T04:48:03.862Z,981.23
2022-09-02T04:49:03.053Z,981.23
2022-09-02T04:50:02.932Z,981.29
2022-09-02T04:51:03.126Z,981.17
2022-09-02T04:52:03.055Z,981.15
2022-09-02T04:53:03.185Z,981.29
2022-09-02T04:54:03.157Z,981.26
2022-09-02T04:55:03.240Z,981.20
2022-09-02T04:56:03.369Z,981.20
2022-09-02T04:57:03.397Z,981.23
2022-09-02T04:58:03.447Z,981.26
2022-09-02T04:59:03.580Z,981.26
2022-09-02T05:00:03.571Z,981.17
2022-09-02T05:01:03.705Z,981.35
2022-09-02T05:02:03.972Z,981.06
2022-09-02T05:03:03.696Z,981.32
2022-09-02T05:04:03.590Z,981.20
2022-09-02T05:05:03.656Z,981.20
2022-09-02T05:06:03.817Z,981.26
2022-09-02T05:07:03.904Z,981.23
2022-09-02T05:08:02.967Z,981.26
2022-09-02T05:09:03.094Z,981.29
2022-09-02T05:10:03.055Z,981.26
2022-09-02T05:11:03.064Z,981.23
2022-09-02T05:12:03.201Z,981.12
2022-09-02T05:13:03.258Z,981.14
2022-09-02T05:14:03.460Z,981.23
2022-09-02T05:15:03.488Z,981.11
2022-09-02T05:16:03.570Z,981.11
2022-09-02T05:17:09.542Z,981.22
2022-09-02T05:18:04.564Z,981.02
2022-09-02T05:19:03.750Z,981.13
2022-09-02T05:20:03.778Z,981.12
2022-09-02T05:21:02.945Z,981.18
2022-09-02T05:22:02.972Z,981.06
2022-09-02T05:23:02.976Z,980.99
2022-09-02T05:24:02.993Z,981.04
2022-09-02T05:25:03.041Z,980.98
2022-09-02T05:26:03.135Z,980.97
2022-09-02T05:27:03.071Z,981.02
2022-09-02T05:28:03.170Z,980.96
2022-09-02T05:29:03.089Z,980.87
2022-09-02T05:30:03.316Z,980.86
2022-09-02T05:31:03.463Z,980.94
2022-09-02T05:32:03.488Z,980.99
2022-09-02T05:33:03.656Z,981.07
2022-09-02T05:34:03.693Z,980.97
2022-09-02T05:35:03.720Z,981.17
2022-09-02T05:36:03.660Z,981.05
2022-09-02T05:37:03.727Z,981.24
2022-09-02T05:38:03.700Z,981.18
2022-09-02T05:39:03.745Z,981.31
2022-09-02T05:40:04.342Z,981.25
2022-09-02T05:41:03.761Z,981.33
2022-09-02T05:42:03.943Z,981.38
2022-09-02T05:43:03.903Z,981.38
2022-09-02T05:44:03.951Z,981.49
2022-09-02T05:45:03.090Z,981.39
2022-09-02T05:46:03.275Z,981.47
2022-09-02T05:47:03.318Z,981.57
2022-09-02T05:48:03.265Z,981.60
2022-09-02T05:49:03.396Z,981.68
2022-09-02T05:50:03.496Z,981.59
2022-09-02T05:51:03.351Z,981.78
2022-09-02T05:52:03.455Z,981.78
2022-09-02T05:53:03.455Z,981.89
2022-09-02T05:54:03.441Z,981.91
2022-09-02T05:55:03.519Z,981.97
2022-09-02T05:56:03.481Z,982.05
2022-09-02T05:57:03.534Z,982.19
2022-09-02T05:58:03.553Z,982.16
2022-09-02T05:59:03.615Z,982.15
2022-09-02T06:00:03.678Z,982.26
2022-09-02T06:01:03.563Z,982.20
2022-09-02T06:02:03.880Z,982.34
2022-09-02T06:03:03.934Z,982.37
2022-09-02T06:04:03.372Z,982.42
2022-09-02T06:05:03.439Z,982.47
2022-09-02T06:06:07.176Z,982.50
2022-09-02T06:07:03.638Z,982.64
2022-09-02T06:08:03.693Z,982.52
2022-09-02T06:09:03.843Z,982.63
2022-09-02T06:10:02.936Z,982.69
2022-09-02T06:11:03.043Z,982.82
2022-09-02T06:12:03.053Z,982.82
2022-09-02T06:13:03.110Z,982.84
2022-09-02T06:14:03.800Z,982.73
2022-09-02T06:15:03.763Z,982.87
2022-09-02T06:16:03.788Z,982.89
2022-09-02T06:17:05.272Z,982.98
2022-09-02T06:18:02.960Z,982.97
2022-09-02T06:19:02.940Z,982.97
2022-09-02T06:20:03.020Z,982.94
2022-09-02T06:21:03.090Z,983.00
2022-09-02T06:22:03.124Z,983.25
2022-09-02T06:23:03.160Z,983.11
2022-09-02T06:24:03.253Z,983.13
2022-09-02T06:25:03.304Z,983.22
2022-09-02T06:26:03.431Z,983.10
2022-09-02T06:27:03.517Z,983.27
2022-09-02T06:28:07.574Z,983.35
2022-09-02T06:29:03.627Z,983.24
2022-09-02T06:30:03.708Z,983.32
2022-09-02T06:31:03.928Z,983.17
2022-09-02T06:32:03.672Z,983.29
2022-09-02T06:33:03.987Z,983.40
2022-09-02T06:34:03.898Z,983.39
2022-09-02T06:35:02.992Z,983.42
2022-09-02T06:36:03.042Z,983.42
2022-09-02T06:37:03.109Z,983.31
2022-09-02T06:38:03.090Z,983.38
2022-09-02T06:39:03.112Z,983.44
2022-09-02T06:40:03.254Z,983.35
2022-09-02T06:41:03.276Z,983.30
2022-09-02T06:42:03.367Z,983.38
2022-09-02T06:43:03.441Z,983.30
2022-09-02T06:44:03.469Z,983.37
2022-09-02T06:45:03.507Z,983.26
2022-09-02T06:46:03.656Z,983.37
2022-09-02T06:47:03.597Z,983.37
2022-09-02T06:48:07.975Z,983.51
2022-09-02T06:49:03.707Z,983.48
2022-09-02T06:50:03.833Z,983.54
2022-09-02T06:51:03.795Z,983.48
2022-09-02T06:52:03.885Z,983.42
2022-09-02T06:53:03.043Z,983.44
2022-09-02T06:54:03.134Z,983.59
2022-09-02T06:55:03.102Z,983.38
2022-09-02T06:56:03.225Z,983.59
2022-09-02T06:57:03.304Z,983.67
2022-09-02T06:58:03.323Z,983.73
2022-09-02T06:59:03.358Z,983.70
2022-09-02T07:00:03.438Z,983.67
2022-09-02T07:01:03.547Z,983.61
2022-09-02T07:02:04.086Z,983.61
2022-09-02T07:03:03.712Z,983.69
2022-09-02T07:04:03.776Z,983.69
2022-09-02T07:05:03.697Z,983.75
2022-09-02T07:06:03.752Z,983.66
2022-09-02T07:07:03.918Z,983.69
2022-09-02T07:08:03.857Z,983.72
2022-09-02T07:09:03.035Z,983.69
2022-09-02T07:10:03.099Z,983.80
2022-09-02T07:11:03.138Z,983.83
2022-09-02T07:12:05.890Z,983.86
2022-09-02T07:13:03.157Z,983.77
2022-09-02T07:14:03.144Z,983.77
2022-09-02T07:15:03.211Z,983.80
2022-09-02T07:16:03.170Z,983.71
2022-09-02T07:17:03.674Z,983.82
2022-09-02T07:18:03.506Z,983.76
2022-09-02T07:19:03.396Z,983.88
2022-09-02T07:20:03.531Z,983.85
2022-09-02T07:21:05.705Z,983.91
2022-09-02T07:22:03.658Z,983.88
2022-09-02T07:23:03.757Z,983.82
2022-09-02T07:24:03.677Z,983.79
2022-09-02T07:25:03.724Z,983.77
2022-09-02T07:26:03.705Z,983.85
2022-09-02T07:27:03.775Z,983.82
2022-09-02T07:28:05.098Z,983.82
2022-09-02T07:29:03.028Z,983.79
2022-09-02T07:30:02.985Z,983.88
2022-09-02T07:31:03.145Z,983.79
2022-09-02T07:32:03.152Z,983.73
2022-09-02T07:33:03.214Z,983.70
2022-09-02T07:34:03.144Z,983.85
2022-09-02T07:35:03.493Z,983.85
2022-09-02T07:36:03.669Z,983.71
2022-09-02T07:37:10.802Z,983.82
2022-09-02T07:38:03.597Z,983.85
2022-09-02T07:39:03.610Z,983.88
2022-09-02T07:40:03.758Z,984.03
2022-09-02T07:41:03.878Z,983.79
2022-09-02T07:42:03.855Z,983.94
2022-09-02T07:43:03.012Z,983.88
2022-09-02T07:44:03.109Z,983.88
2022-09-02T07:45:03.511Z,983.91
2022-09-02T07:46:03.609Z,983.85
2022-09-02T07:47:03.555Z,983.82
2022-09-02T07:48:03.542Z,983.82
2022-09-02T07:49:04.997Z,984.00
2022-09-02T07:50:21.680Z,983.91
2022-09-02T07:51:03.340Z,983.79
2022-09-02T07:52:03.466Z,983.90
2022-09-02T07:53:03.430Z,983.79
2022-09-02T07:54:03.583Z,983.84
2022-09-02T07:55:03.576Z,983.87
2022-09-02T07:56:03.699Z,983.87
2022-09-02T07:57:03.662Z,983.96
2022-09-02T07:58:03.622Z,983.90
2022-09-02T07:59:03.752Z,983.93
2022-09-02T08:00:03.733Z,983.99
2022-09-02T08:01:04.044Z,984.02
2022-09-02T08:02:04.014Z,983.99
2022-09-02T08:03:03.272Z,983.96
2022-09-02T08:04:06.640Z,983.99
2022-09-02T08:05:03.194Z,984.02
2022-09-02T08:06:03.366Z,984.05
2022-09-02T08:07:03.332Z,984.28
2022-09-02T08:08:03.254Z,984.11
2022-09-02T08:09:03.311Z,984.11
2022-09-02T08:10:03.291Z,984.26
2022-09-02T08:11:03.317Z,984.05
2022-09-02T08:12:03.353Z,984.23
2022-09-02T08:13:03.317Z,984.05
2022-09-02T08:14:03.449Z,984.05
2022-09-02T08:15:03.412Z,984.08
2022-09-02T08:16:03.650Z,984.14
2022-09-02T08:17:03.764Z,984.20
2022-09-02T08:18:03.656Z,984.12
2022-09-02T08:19:03.660Z,984.12
2022-09-02T08:20:03.759Z,984.23
2022-09-02T08:21:03.946Z,984.17
2022-09-02T08:22:03.863Z,984.23
2022-09-02T08:23:18.432Z,984.29
2022-09-02T08:24:03.425Z,984.32
2022-09-02T08:25:03.088Z,984.44
2022-09-02T08:26:03.125Z,984.20
2022-09-02T08:27:03.171Z,984.38
2022-09-02T08:28:03.217Z,984.32
2022-09-02T08:29:03.211Z,984.29
2022-09-02T08:30:03.322Z,984.35
2022-09-02T08:31:03.386Z,984.35
2022-09-02T08:32:03.905Z,984.29
2022-09-02T08:33:03.541Z,984.32
2022-09-02T08:34:03.590Z,984.32
2022-09-02T08:35:03.602Z,984.29
2022-09-02T08:36:03.648Z,984.14
2022-09-02T08:37:03.662Z,984.29
2022-09-02T08:38:04.095Z,984.35
2022-09-02T08:39:03.209Z,984.23
2022-09-02T08:40:03.179Z,984.29
2022-09-02T08:41:03.208Z,984.35
2022-09-02T08:42:03.512Z,984.29
2022-09-02T08:43:03.236Z,984.17
2022-09-02T08:44:03.084Z,984.29
2022-09-02T08:45:03.017Z,984.26
2022-09-02T08:46:03.419Z,984.26
2022-09-02T08:47:03.293Z,984.20
2022-09-02T08:48:03.343Z,984.14
2022-09-02T08:49:03.266Z,984.14
2022-09-02T08:50:03.382Z,984.14
2022-09-02T08:51:03.495Z,984.14
2022-09-02T08:52:03.526Z,984.11
2022-09-02T08:53:03.615Z,984.14
2022-09-02T08:54:03.588Z,984.20
2022-09-02T08:55:03.731Z,984.11
2022-09-02T08:56:03.844Z,983.99
2022-09-02T08:57:03.890Z,984.14
2022-09-02T08:58:03.984Z,984.02
2022-09-02T08:59:03.839Z,984.17
2022-09-02T09:00:03.006Z,984.14
2022-09-02T09:01:03.162Z,984.11
2022-09-02T09:02:03.373Z,984.08
2022-09-02T09:03:03.081Z,984.02
2022-09-02T09:04:03.156Z,984.20
2022-09-02T09:05:03.280Z,984.20
2022-09-02T09:06:03.309Z,984.23
2022-09-02T09:07:03.321Z,983.99
2022-09-02T09:08:03.541Z,984.14
2022-09-02T09:09:03.572Z,984.08
2022-09-02T09:10:03.679Z,984.05
2022-09-02T09:11:03.067Z,983.99
2022-09-02T09:12:03.110Z,984.02
2022-09-02T09:13:02.938Z,984.02
2022-09-02T09:14:03.170Z,984.05
2022-09-02T09:15:03.830Z,983.96
2022-09-02T09:16:03.998Z,984.02
2022-09-02T09:17:03.039Z,983.90
2022-09-02T09:18:03.185Z,983.99
2022-09-02T09:19:08.724Z,983.96
2022-09-02T09:20:03.226Z,983.84
2022-09-02T09:21:03.307Z,983.87
2022-09-02T09:22:03.362Z,983.87
2022-09-02T09:23:03.632Z,983.90
2022-09-02T09:24:03.778Z,983.87
2022-09-02T09:25:03.848Z,983.96
2022-09-02T09:26:02.943Z,984.05
2022-09-02T09:27:04.211Z,984.02
2022-09-02T09:28:03.287Z,984.06
2022-09-02T09:29:03.339Z,984.00
2022-09-02T09:30:03.881Z,984.00
2022-09-02T09:31:03.320Z,984.09
2022-09-02T09:32:03.473Z,984.10
2022-09-02T09:33:03.405Z,984.22
2022-09-02T09:34:03.435Z,984.19
2022-09-02T09:35:03.465Z,984.25
2022-09-02T09:36:03.518Z,984.17
2022-09-02T09:37:03.530Z,984.17
2022-09-02T09:38:03.563Z,984.08
2022-09-02T09:39:03.502Z,984.11
2022-09-02T09:40:03.556Z,984.09
2022-09-02T09:41:03.678Z,984.12
2022-09-02T09:42:03.787Z,984.12
2022-09-02T09:43:03.906Z,983.97
2022-09-02T09:44:02.953Z,984.06
2022-09-02T09:45:03.031Z,983.94
2022-09-02T09:46:03.177Z,984.00
2022-09-02T09:47:02.994Z,983.97
2022-09-02T09:48:02.916Z,983.92
2022-09-02T09:49:03.032Z,983.89
2022-09-02T09:50:03.619Z,983.95
2022-09-02T09:51:03.474Z,983.98
2022-09-02T09:52:03.558Z,983.78
2022-09-02T09:53:03.514Z,983.84
2022-09-02T09:54:03.546Z,983.90
2022-09-02T09:55:03.592Z,983.87
2022-09-02T09:56:03.723Z,983.81
2022-09-02T09:57:03.760Z,983.96
2022-09-02T09:58:03.791Z,983.75
2022-09-02T09:59:03.843Z,983.75
2022-09-02T10:00:03.020Z,983.61
2022-09-02T10:01:04.011Z,983.69
2022-09-02T10:02:03.109Z,983.66
2022-09-02T10:03:02.920Z,983.75
2022-09-02T10:04:03.004Z,983.63
2022-09-02T10:05:03.113Z,983.75
2022-09-02T10:06:03.133Z,983.75
2022-09-02T10:07:03.209Z,983.66
2022-09-02T10:08:03.238Z,983.72
2022-09-02T10:09:03.290Z,983.63
2022-09-02T10:10:03.249Z,983.66
2022-09-02T10:11:03.669Z,983.66
2022-09-02T10:12:03.706Z,983.60
2022-09-02T10:13:03.714Z,983.66
2022-09-02T10:14:03.848Z,983.63
2022-09-02T10:15:03.945Z,983.57
2022-09-02T10:16:03.078Z,983.48
2022-09-02T10:17:03.106Z,983.57
2022-09-02T10:18:03.101Z,983.57
2022-09-02T10:19:03.127Z,983.60
2022-09-02T10:20:05.170Z,983.60
2022-09-02T10:21:16.230Z,983.54
2022-09-02T10:22:03.259Z,983.57
2022-09-02T10:23:03.352Z,983.51
2022-09-02T10:24:03.345Z,983.57
2022-09-02T10:25:03.455Z,983.60
2022-09-02T10:26:03.562Z,983.49
2022-09-02T10:27:03.703Z,983.63
2022-09-02T10:28:03.728Z,983.58
2022-09-02T10:29:04.726Z,983.49
2022-09-02T10:30:03.187Z,983.46
2022-09-02T10:31:03.236Z,983.55
2022-09-02T10:32:03.259Z,983.46
2022-09-02T10:33:03.384Z,983.49
2022-09-02T10:34:03.340Z,983.52
2022-09-02T10:35:04.221Z,983.58
2022-09-02T10:36:03.427Z,983.52
2022-09-02T10:37:03.568Z,983.37
2022-09-02T10:38:03.832Z,983.29
2022-09-02T10:39:03.862Z,983.26
2022-09-02T10:40:02.963Z,983.17
2022-09-02T10:41:02.981Z,983.31
2022-09-02T10:42:02.935Z,983.34
2022-09-02T10:43:03.015Z,983.22
2022-09-02T10:44:03.075Z,983.22
2022-09-02T10:45:03.354Z,983.24
2022-09-02T10:46:03.550Z,983.27
2022-09-02T10:47:03.746Z,983.24
2022-09-02T10:48:03.818Z,983.35
2022-09-02T10:49:03.757Z,983.24
2022-09-02T10:50:03.911Z,983.18
2022-09-02T10:51:03.162Z,983.24
2022-09-02T10:52:03.263Z,983.27
2022-09-02T10:53:09.335Z,983.27
2022-09-02T10:54:03.378Z,983.30
2022-09-02T10:55:03.390Z,983.24
2022-09-02T10:56:03.413Z,983.27
2022-09-02T10:57:03.926Z,983.16
2022-09-02T10:58:03.477Z,983.10
2022-09-02T10:59:03.719Z,983.21
2022-09-02T11:00:03.561Z,983.30
2022-09-02T11:01:03.838Z,983.30
2022-09-02T11:02:03.823Z,983.10
2022-09-02T11:03:03.891Z,983.21
2022-09-02T11:04:04.075Z,983.15
2022-09-02T11:05:03.897Z,983.18
2022-09-02T11:06:03.220Z,983.18
2022-09-02T11:07:04.106Z,983.24
2022-09-02T11:08:03.088Z,983.27
2022-09-02T11:09:03.098Z,983.24
2022-09-02T11:10:03.138Z,983.24
2022-09-02T11:11:03.107Z,983.27
2022-09-02T11:12:03.293Z,983.15
2022-09-02T11:13:03.286Z,983.27
2022-09-02T11:14:03.400Z,983.10
2022-09-02T11:15:03.390Z,983.07
2022-09-02T11:16:03.499Z,983.04
2022-09-02T11:17:03.746Z,983.06
2022-09-02T11:18:03.704Z,982.94
2022-09-02T11:19:03.709Z,983.06
2022-09-02T11:20:03.959Z,982.97
2022-09-02T11:21:03.677Z,982.97
2022-09-02T11:22:03.783Z,983.03
2022-09-02T11:23:04.019Z,982.94
2022-09-02T11:24:03.907Z,982.91
2022-09-02T11:25:04.623Z,982.96
2022-09-02T11:26:02.912Z,982.99
2022-09-02T11:27:04.389Z,983.05
2022-09-02T11:28:03.069Z,982.87
2022-09-02T11:29:04.594Z,983.11
2022-09-02T11:30:03.021Z,983.08
2022-09-02T11:31:03.050Z,983.05
2022-09-02T11:32:03.242Z,982.96
2022-09-02T11:33:03.311Z,983.02
2022-09-02T11:35:03.233Z,983.14
2022-09-02T11:36:03.960Z,983.17
2022-09-02T11:37:03.293Z,983.09
2022-09-02T11:38:03.505Z,983.09
2022-09-02T11:39:03.512Z,983.18
2022-09-02T11:40:34.447Z,983.15
2022-09-02T11:41:37.742Z,983.12
2022-09-02T11:42:03.927Z,983.00
2022-09-02T11:43:03.234Z,983.03
2022-09-02T11:44:03.138Z,983.00
2022-09-02T11:45:03.239Z,983.00
2022-09-02T11:46:03.423Z,983.03
2022-09-02T11:47:03.432Z,983.00
2022-09-02T11:48:04.986Z,983.00
2022-09-02T11:49:03.484Z,983.09
2022-09-02T11:50:03.492Z,983.06
2022-09-02T11:51:03.665Z,982.79
2022-09-02T11:52:04.560Z,982.97
2022-09-02T11:53:03.701Z,983.00
2022-09-02T11:54:05.179Z,983.17
2022-09-02T11:55:03.796Z,983.14
2022-09-02T11:56:02.960Z,983.00
2022-09-02T11:57:02.955Z,982.97
2022-09-02T11:58:02.979Z,983.02
2022-09-02T11:59:03.096Z,982.93
2022-09-02T12:00:03.445Z,982.90
2022-09-02T12:01:03.208Z,982.93
2022-09-02T12:02:03.433Z,982.78
2022-09-02T12:03:38.198Z,982.87
2022-09-02T12:05:00.692Z,982.70
2022-09-02T12:05:04.906Z,982.70
2022-09-02T12:06:03.891Z,982.73
2022-09-02T12:07:10.469Z,982.86
2022-09-02T12:08:03.745Z,982.75
2022-09-02T12:09:03.784Z,982.89
2022-09-02T12:10:02.950Z,982.92
2022-09-02T12:11:03.257Z,982.83
2022-09-02T12:12:03.159Z,982.89
2022-09-02T12:13:03.306Z,982.83
2022-09-02T12:14:07.377Z,982.80
2022-09-02T12:15:03.745Z,982.92
2022-09-02T12:16:03.305Z,982.95
2022-09-02T12:17:03.230Z,982.83
2022-09-02T12:18:03.370Z,982.81
2022-09-02T12:19:03.388Z,982.92
2022-09-02T12:20:03.448Z,982.92
2022-09-02T12:21:03.298Z,982.93
2022-09-02T12:22:04.226Z,982.99
2022-09-02T12:23:03.707Z,982.84
2022-09-02T12:24:03.455Z,982.87
2022-09-02T12:25:03.660Z,983.05
2022-09-02T12:26:03.690Z,982.96
2022-09-02T12:27:03.760Z,982.82
2022-09-02T12:28:03.693Z,982.90
2022-09-02T12:29:03.664Z,982.82